Time;durP1;ratioP1;P1;durP2;ratioP2;P2;SDS_P1;SDS_P2;PMS_P1;PMS_P2;Temp;Humidity;BMP_temperature;BMP_pressure;BME280_temperature;BME280_humidity;BME280_pressure;Samples;Min_cycle;Max_cycle;Signal;HPM_P1;HPM_P2
2022/04/12 00:00:00;;;;;;;3.20;2.80;;;;;;;6.74;100.00;100646.75;5073891;28;20195;-87
2022/04/12 00:02:28;;;;;;;3.53;3.23;;;;;;;6.41;100.00;100612.84;5073898;28;20263;-85
2022/04/12 00:04:56;;;;;;;5.03;3.33;;;;;;;6.75;100.00;100655.38;5076112;28;20230;-85
2022/04/12 00:07:23;;;;;;;4.43;3.10;;;;;;;6.73;100.00;100657.91;5074230;28;20210;-86
2022/04/12 00:09:50;;;;;;;4.37;3.50;;;;;;;6.61;100.00;100651.38;5074193;28;20199;-87
2022/04/12 00:12:17;;;;;;;3.50;3.20;;;;;;;6.35;100.00;100632.31;5073924;28;20209;-87
2022/04/12 00:14:44;;;;;;;2.97;2.67;;;;;;;6.60;100.00;100647.06;5039066;28;20203;-85
2022/04/12 00:19:56;;;;;;;3.23;3.03;;;;;;;6.47;100.00;100625.06;5074058;28;20205;-85
2022/04/12 00:22:23;;;;;;;4.47;3.43;;;;;;;6.44;100.00;100651.59;5073689;28;20203;-86
2022/04/12 00:24:49;;;;;;;3.47;3.17;;;;;;;6.55;100.00;100651.16;5018376;28;20568;-83
2022/04/12 00:27:16;;;;;;;3.40;3.10;;;;;;;6.63;100.00;100649.75;5066066;28;20213;-84
2022/04/12 00:29:43;;;;;;;2.97;2.80;;;;;;;6.60;100.00;100647.91;5075516;28;20256;-85
2022/04/12 00:32:10;;;;;;;6.17;3.87;;;;;;;6.55;100.00;100641.72;5083784;28;20202;-86
2022/04/12 00:34:37;;;;;;;7.07;3.63;;;;;;;6.59;99.24;100630.72;5085803;28;20213;-84
2022/04/12 00:37:05;;;;;;;4.13;3.47;;;;;;;6.60;100.00;100641.91;5080961;28;20227;-87
2022/04/12 00:39:34;;;;;;;4.37;3.63;;;;;;;6.38;100.00;100614.41;5079923;28;20198;-86
2022/04/12 00:42:01;;;;;;;4.43;3.50;;;;;;;6.54;100.00;100654.53;5079921;28;20198;-86
2022/04/12 00:44:28;;;;;;;6.30;3.37;;;;;;;6.58;100.00;100659.00;5058770;28;20208;-86
2022/04/12 00:46:55;;;;;;;3.73;3.40;;;;;;;6.52;100.00;100648.44;5075901;28;20683;-83
2022/04/12 00:49:23;;;;;;;4.13;3.40;;;;;;;6.47;100.00;100636.25;5081246;28;20199;-85
2022/04/12 00:51:51;;;;;;;6.20;3.90;;;;;;;6.46;100.00;100643.91;5073433;28;20207;-86
2022/04/12 00:54:20;;;;;;;3.67;3.30;;;;;;;6.40;100.00;100647.13;5022161;28;20195;-83
2022/04/12 00:56:47;;;;;;;4.47;2.67;;;;;;;6.49;100.00;100642.34;5073234;28;20203;-86
2022/04/12 00:59:14;;;;;;;3.23;3.03;;;;;;;6.32;100.00;100647.63;5073884;28;20203;-84
2022/04/12 01:01:41;;;;;;;7.13;3.47;;;;;;;6.44;100.00;100641.28;5073561;28;20221;-83
2022/04/12 01:04:07;;;;;;;3.70;3.40;;;;;;;6.40;100.00;100648.81;5078435;28;20224;-84
2022/04/12 01:06:34;;;;;;;3.80;3.50;;;;;;;6.33;100.00;100650.28;5061547;28;20256;-84
2022/04/12 01:09:04;;;;;;;3.83;3.47;;;;;;;6.48;100.00;100640.59;5074912;28;20206;-84
2022/04/12 01:11:33;;;;;;;4.73;3.97;;;;;;;6.42;100.00;100648.06;5078077;28;20195;-86
2022/04/12 01:14:00;;;;;;;5.73;3.70;;;;;;;6.30;100.00;100636.41;5082009;28;20713;-86
2022/04/12 01:16:27;;;;;;;4.87;3.73;;;;;;;6.10;100.00;100622.69;5081327;28;20227;-85
2022/04/12 01:18:53;;;;;;;3.40;3.10;;;;;;;6.34;100.00;100636.59;5078997;28;20233;-85
2022/04/12 01:21:21;;;;;;;4.30;3.40;;;;;;;6.41;100.00;100640.28;5074028;28;20202;-86
2022/04/12 01:23:57;;;;;;;3.97;3.50;;;;;;;6.36;100.00;100639.22;5074233;28;20264;-85
2022/04/12 01:26:24;;;;;;;3.47;3.17;;;;;;;6.41;100.00;100636.03;5073745;28;20190;-86
2022/04/12 01:28:51;;;;;;;5.47;3.23;;;;;;;6.43;100.00;100636.94;5073732;28;20206;-84
2022/04/12 01:31:18;;;;;;;3.00;2.80;;;;;;;6.20;100.00;100635.16;5073464;28;20206;-85
2022/04/12 01:33:44;;;;;;;4.33;3.90;;;;;;;6.14;100.00;100637.44;5072828;28;20195;-84
2022/04/12 01:36:11;;;;;;;4.63;3.30;;;;;;;6.14;100.00;100634.88;5073135;28;20206;-83
2022/04/12 01:38:38;;;;;;;3.13;2.93;;;;;;;5.70;100.00;100575.53;5072550;28;20219;-85
2022/04/12 01:41:06;;;;;;;5.90;3.97;;;;;;;6.14;100.00;100634.88;5071991;28;20195;-86
2022/04/12 01:43:33;;;;;;;4.97;3.70;;;;;;;6.05;100.00;100629.38;5071761;28;20199;-80
2022/04/12 01:46:00;;;;;;;3.60;3.30;;;;;;;6.01;100.00;100627.47;5071352;28;20199;-85
2022/04/12 01:48:27;;;;;;;3.53;3.23;;;;;;;5.92;100.00;100637.41;5036177;28;20207;-85
2022/04/12 01:50:54;;;;;;;6.23;3.43;;;;;;;5.88;100.00;100638.06;5071425;28;20246;-85
2022/04/12 01:53:20;;;;;;;7.33;4.30;;;;;;;5.65;100.00;100600.16;5033601;28;20195;-83
2022/04/12 01:55:47;;;;;;;7.93;3.50;;;;;;;5.89;100.00;100642.38;5053093;28;20195;-85
2022/04/12 01:58:16;;;;;;;3.30;3.00;;;;;;;6.10;100.00;100633.00;5071792;28;20214;-85
2022/04/12 02:00:43;;;;;;;6.83;3.13;;;;;;;5.93;100.00;100633.97;5071388;28;20195;-85
2022/04/12 02:03:10;;;;;;;4.37;3.70;;;;;;;6.04;100.00;100634.44;5071824;28;20199;-86
2022/04/12 02:05:37;;;;;;;3.90;3.50;;;;;;;6.04;100.00;100637.88;5071650;28;20245;-85
2022/04/12 02:08:04;;;;;;;3.97;3.70;;;;;;;6.09;100.00;100636.41;5072011;28;20191;-83
2022/04/12 02:10:31;;;;;;;11.03;5.50;;;;;;;6.17;100.00;100636.72;5036289;28;20281;-85
2022/04/12 02:12:58;;;;;;;8.67;4.43;;;;;;;6.01;100.00;100634.31;5071379;28;20564;-85
2022/04/12 02:15:26;;;;;;;6.43;4.23;;;;;;;5.90;100.00;100633.84;5071852;28;20199;-85
2022/04/12 02:17:52;;;;;;;4.23;3.83;;;;;;;5.93;100.00;100644.28;5071454;28;20227;-84
2022/04/12 02:20:19;;;;;;;5.80;3.53;;;;;;;6.08;100.00;100642.34;5071315;28;20203;-82
2022/04/12 02:22:46;;;;;;;4.43;3.47;;;;;;;5.94;100.00;100641.78;5071045;28;20206;-84
2022/04/12 02:25:13;;;;;;;4.00;3.60;;;;;;;5.95;100.00;100652.97;5071251;28;20245;-83
2022/04/12 02:27:39;;;;;;;4.03;3.63;;;;;;;5.82;100.00;100642.91;5071204;28;20206;-85
2022/04/12 02:30:07;;;;;;;5.63;3.90;;;;;;;5.95;100.00;100640.09;5071369;28;20206;-85
2022/04/12 02:32:35;;;;;;;5.83;3.40;;;;;;;5.95;100.00;100627.22;5018924;28;20210;-85
2022/04/12 02:35:02;;;;;;;6.27;3.70;;;;;;;5.83;100.00;100622.41;5070849;28;20199;-85
2022/04/12 02:37:29;;;;;;;4.63;3.83;;;;;;;6.03;100.00;100630.97;5071175;28;20218;-85
2022/04/12 02:39:56;;;;;;;4.77;3.57;;;;;;;5.85;100.00;100623.34;5070375;28;20202;-86
2022/04/12 02:42:23;;;;;;;5.47;4.00;;;;;;;5.90;100.00;100621.00;5070910;28;20203;-87
2022/04/12 02:44:49;;;;;;;4.07;3.60;;;;;;;5.90;100.00;100618.41;5070767;28;20198;-81
2022/04/12 02:47:16;;;;;;;4.30;3.77;;;;;;;5.92;100.00;100637.41;5071323;28;20199;-86
2022/04/12 02:49:44;;;;;;;4.60;3.67;;;;;;;6.09;100.00;100628.69;5070649;28;20217;-86
2022/04/12 02:52:11;;;;;;;3.67;3.30;;;;;;;5.99;100.00;100629.97;5015295;28;20211;-84
2022/04/12 02:54:38;;;;;;;3.93;3.63;;;;;;;5.99;100.00;100634.28;5070357;28;20207;-85
2022/04/12 02:57:05;;;;;;;5.70;3.97;;;;;;;5.97;100.00;100630.72;5071855;28;20191;-84
2022/04/12 02:59:32;;;;;;;5.00;3.07;;;;;;;5.92;100.00;100601.38;5070415;28;20578;-85
2022/04/12 03:01:58;;;;;;;7.37;4.00;;;;;;;5.94;100.00;100625.47;5070560;28;20663;-84
2022/04/12 03:04:25;;;;;;;3.97;3.67;;;;;;;5.96;100.00;100631.53;5070438;28;20667;-83
2022/04/12 03:06:53;;;;;;;3.97;3.57;;;;;;;5.82;100.00;100615.50;5070884;28;20547;-84
2022/04/12 03:09:20;;;;;;;6.30;4.40;;;;;;;5.89;100.00;100632.09;5069828;28;20191;-84
2022/04/12 03:11:47;;;;;;;4.33;4.03;;;;;;;5.36;100.00;100538.06;5070747;28;20210;-86
2022/04/12 03:14:14;;;;;;;2.87;2.63;;;;;;;5.83;100.00;100636.97;5070683;28;20203;-87
2022/04/12 03:16:42;;;;;;;4.07;3.67;;;;;;;5.84;100.00;100633.56;5070763;28;20239;-85
2022/04/12 03:19:09;;;;;;;6.10;4.03;;;;;;;5.95;100.00;100648.69;5070439;28;20218;-86
2022/04/12 03:21:36;;;;;;;4.00;3.60;;;;;;;5.80;100.00;100652.28;5073229;28;20659;-86
2022/04/12 03:24:05;;;;;;;5.77;4.03;;;;;;;5.77;100.00;100647.00;5074359;28;20557;-86
2022/04/12 03:26:31;;;;;;;3.50;3.20;;;;;;;5.68;100.00;100651.72;5074651;28;20198;-85
2022/04/12 03:28:58;;;;;;;4.10;3.57;;;;;;;5.76;100.00;100653.81;5074480;28;20209;-81
2022/04/12 03:31:25;;;;;;;4.80;3.70;;;;;;;5.67;100.00;100650.84;5074315;28;20674;-86
2022/04/12 03:33:52;;;;;;;3.90;3.53;;;;;;;5.68;100.00;100657.75;5074251;28;20639;-86
2022/04/12 03:36:19;;;;;;;3.73;3.43;;;;;;;5.68;100.00;100616.59;5073815;28;20210;-84
2022/04/12 03:38:49;;;;;;;6.63;4.33;;;;;;;5.94;99.91;100652.06;5074508;28;20230;-86
2022/04/12 03:41:19;;;;;;;8.70;3.70;;;;;;;5.82;98.57;100614.59;5074492;28;20694;-86
2022/04/12 03:43:46;;;;;;;4.87;4.13;;;;;;;5.77;99.25;100640.16;5074625;28;20199;-87
2022/04/12 03:46:13;;;;;;;5.23;3.97;;;;;;;5.78;100.00;100667.63;5074363;28;20623;-80
2022/04/12 03:48:40;;;;;;;5.93;5.27;;;;;;;5.71;100.00;100668.16;5073464;28;20686;-80
2022/04/12 03:51:06;;;;;;;5.60;3.43;;;;;;;6.00;100.00;100656.59;5073605;28;20211;-80
2022/04/12 03:53:33;;;;;;;2.93;2.67;;;;;;;6.09;98.69;100656.09;5073705;28;20191;-85
2022/04/12 03:56:04;;;;;;;6.57;3.93;;;;;;;6.08;97.32;100650.06;5074070;28;20206;-85
2022/04/12 03:58:32;;;;;;;4.07;3.70;;;;;;;6.15;96.43;100651.22;5073355;28;20214;-85
2022/04/12 04:00:59;;;;;;;4.60;3.37;;;;;;;5.99;96.09;100642.00;5074180;28;20198;-85
2022/04/12 04:03:26;;;;;;;4.07;3.27;;;;;;;6.18;95.57;100647.06;5073403;28;20207;-85
2022/04/12 04:05:52;;;;;;;5.97;3.13;;;;;;;6.24;93.98;100652.47;5027815;28;20203;-86
2022/04/12 04:08:19;;;;;;;8.10;4.27;;;;;;;6.49;93.70;100650.06;5078700;28;20207;-80
2022/04/12 04:10:46;;;;;;;4.83;3.67;;;;;;;7.00;89.33;100655.50;5078611;28;20283;-85
2022/04/12 04:13:14;;;;;;;5.97;3.10;;;;;;;7.06;84.39;100598.16;5078612;28;20225;-85
2022/04/12 04:15:43;;;;;;;4.23;3.80;;;;;;;7.49;82.26;100651.34;5073558;28;20234;-86
2022/04/12 04:18:09;;;;;;;4.72;3.50;;;;;;;7.87;78.81;100663.06;5072710;28;21005;-83
2022/04/12 04:20:37;;;;;;;5.85;3.13;;;;;;;8.32;73.84;100639.63;5073262;28;20195;-84
2022/04/12 04:23:04;;;;;;;6.30;3.67;;;;;;;8.66;70.67;100670.03;5073216;28;20203;-84
2022/04/12 04:25:32;;;;;;;4.50;3.78;;;;;;;9.07;68.47;100664.44;5073582;28;20278;-84
2022/04/12 04:27:59;;;;;;;5.82;3.50;;;;;;;9.21;66.89;100677.78;5073680;28;20218;-85
2022/04/12 04:30:26;;;;;;;3.67;3.38;;;;;;;9.93;65.24;100684.16;5073173;28;20210;-83
2022/04/12 04:32:54;;;;;;;5.55;3.20;;;;;;;9.53;62.80;100670.94;5072648;28;20587;-87
2022/04/12 04:35:21;;;;;;;3.78;3.30;;;;;;;10.12;62.71;100664.81;5055602;28;20210;-81
2022/04/12 04:37:49;;;;;;;4.57;3.30;;;;;;;10.49;61.01;100677.03;5072961;28;20203;-83
2022/04/12 04:40:17;;;;;;;4.20;3.25;;;;;;;10.40;61.20;100682.84;5072934;28;20215;-87
2022/04/12 04:42:44;;;;;;;3.83;3.30;;;;;;;10.27;59.80;100662.66;5073248;28;20264;-81
2022/04/12 04:45:11;;;;;;;5.70;3.42;;;;;;;10.37;60.55;100649.97;5072947;28;20226;-84
2022/04/12 04:47:49;;;;;;;4.05;3.63;;;;;;;9.96;60.00;100671.28;5073003;28;20199;-83
2022/04/12 04:50:17;;;;;;;11.82;5.45;;;;;;;10.18;59.98;100683.13;5073050;28;20238;-83
2022/04/12 04:52:44;;;;;;;8.50;4.40;;;;;;;10.78;58.58;100678.59;5072867;28;20210;-81
2022/04/12 04:55:11;;;;;;;6.47;3.58;;;;;;;11.32;56.59;100691.94;5021719;28;20201;-82
2022/04/12 04:57:39;;;;;;;6.10;4.20;;;;;;;11.81;59.85;100691.25;5072912;28;20257;-79
2022/04/12 05:00:07;;;;;;;4.75;3.45;;;;;;;11.52;55.30;100612.75;5072715;28;20253;-78
2022/04/12 05:02:35;;;;;;;6.88;3.60;;;;;;;11.28;55.44;100700.50;5073066;28;20267;-82
2022/04/12 05:05:02;;;;;;;8.82;3.30;;;;;;;11.31;55.50;100706.63;5073216;28;20202;-81
2022/04/12 05:07:31;;;;;;;4.53;3.40;;;;;;;11.07;55.56;100700.91;5072434;28;20209;-82
2022/04/12 05:09:58;;;;;;;3.28;3.05;;;;;;;10.77;55.98;100701.06;5072263;28;20219;-80
2022/04/12 05:12:25;;;;;;;19.52;9.60;;;;;;;10.66;55.48;100714.63;5071814;28;20207;-82
2022/04/12 05:14:52;;;;;;;10.73;3.33;;;;;;;10.56;55.86;100684.13;5072389;28;20195;-80
2022/04/12 05:17:26;;;;;;;6.72;3.88;;;;;;;10.33;56.25;100699.97;5072708;28;20266;-78
2022/04/12 05:19:53;;;;;;;9.50;3.45;;;;;;;10.95;63.26;100708.44;5072131;28;20301;-83
2022/04/12 05:22:20;;;;;;;7.95;4.40;;;;;;;10.84;58.59;100715.06;5072441;28;20206;-83
2022/04/12 05:24:48;;;;;;;3.45;2.78;;;;;;;10.65;58.41;100726.72;5072220;28;20698;-82
2022/04/12 05:27:15;;;;;;;3.58;3.28;;;;;;;10.22;58.73;100727.31;5038510;28;20279;-83
2022/04/12 05:29:43;;;;;;;5.07;3.10;;;;;;;9.93;60.33;100697.13;5073997;28;20210;-82
2022/04/12 05:32:12;;;;;;;4.03;3.45;;;;;;;9.72;60.78;100706.88;5071772;28;20203;-83
2022/04/12 05:34:40;;;;;;;7.30;2.95;;;;;;;8.80;62.73;100692.03;5072466;28;20203;-81
2022/04/12 05:37:07;;;;;;;4.50;3.78;;;;;;;8.76;67.01;100718.63;5073692;28;20199;-82
2022/04/12 05:39:35;;;;;;;5.25;4.00;;;;;;;8.52;67.75;100725.56;5071682;28;20222;-81
2022/04/12 05:42:06;;;;;;;4.32;3.67;;;;;;;8.24;69.86;100706.50;5071555;28;20622;-84
2022/04/12 05:44:33;;;;;;;4.10;3.30;;;;;;;8.26;71.00;100722.94;5092379;28;20673;-84
2022/04/12 05:47:01;;;;;;;10.43;4.30;;;;;;;7.96;72.15;100729.59;5092435;28;20873;-83
2022/04/12 05:49:28;;;;;;;4.03;3.13;;;;;;;8.05;73.24;100727.38;5091974;28;20596;-81
2022/04/12 05:51:55;;;;;;;8.00;3.47;;;;;;;8.20;72.84;100729.63;5092191;28;20202;-83
2022/04/12 05:54:22;;;;;;;5.45;2.97;;;;;;;8.27;72.76;100726.41;5092484;28;20214;-82
2022/04/12 05:56:49;;;;;;;3.08;2.72;;;;;;;8.18;70.96;100731.25;5092288;28;20202;-82
2022/04/12 05:59:17;;;;;;;5.30;3.35;;;;;;;8.25;71.06;100722.88;5056591;28;20225;-83
2022/04/12 06:01:44;;;;;;;7.00;3.60;;;;;;;8.45;71.47;100721.91;5092085;28;20259;-82
2022/04/12 06:04:11;;;;;;;15.10;4.10;;;;;;;8.62;74.29;100725.03;5091772;28;20206;-84
2022/04/12 06:06:41;;;;;;;6.47;4.00;;;;;;;8.48;71.14;100732.34;5091488;28;20198;-84
2022/04/12 06:09:08;;;;;;;5.40;3.22;;;;;;;8.28;69.15;100704.91;5092100;28;20194;-81
2022/04/12 06:11:35;;;;;;;6.47;3.60;;;;;;;8.49;68.63;100733.22;5092122;28;20216;-81
2022/04/12 06:14:02;;;;;;;7.28;3.15;;;;;;;8.77;84.38;100730.72;5092030;28;20205;-83
2022/04/12 06:16:30;;;;;;;7.72;3.83;;;;;;;8.88;75.72;100739.72;5091475;28;20706;-82
2022/04/12 06:18:57;;;;;;;5.53;3.20;;;;;;;9.08;73.39;100741.22;5091680;28;20628;-82
2022/04/12 06:21:24;;;;;;;11.75;3.63;;;;;;;9.15;70.46;100737.97;5091376;28;20699;-80
2022/04/12 06:23:51;;;;;;;4.60;3.60;;;;;;;9.28;70.58;100742.69;5091683;28;20206;-80
2022/04/12 06:26:18;;;;;;;5.07;3.33;;;;;;;9.28;67.42;100745.28;5091740;28;20202;-79
2022/04/12 06:28:44;;;;;;;3.22;2.78;;;;;;;9.37;67.35;100740.41;5091289;28;20206;-82
2022/04/12 06:31:11;;;;;;;3.38;2.50;;;;;;;9.32;65.68;100749.72;5091587;28;20580;-82
2022/04/12 06:33:39;;;;;;;4.88;2.53;;;;;;;9.24;66.66;100714.97;5091539;28;20213;-85
2022/04/12 06:36:06;;;;;;;3.28;3.00;;;;;;;9.50;66.36;100751.97;5091727;28;20198;-84
2022/04/12 06:38:33;;;;;;;3.20;2.58;;;;;;;8.88;68.31;100682.81;5091673;28;20284;-80
2022/04/12 06:41:00;;;;;;;13.55;5.85;;;;;;;9.46;70.85;100750.13;5091361;28;20253;-80
2022/04/12 06:43:27;;;;;;;8.85;4.30;;;;;;;9.25;71.70;100752.94;5039386;28;20595;-81
2022/04/12 06:45:54;;;;;;;4.20;3.03;;;;;;;9.00;73.20;100727.16;5091395;28;20201;-82
2022/04/12 06:48:20;;;;;;;5.50;3.72;;;;;;;9.43;73.77;100763.00;5091434;28;20190;-81
2022/04/12 06:50:48;;;;;;;5.15;3.95;;;;;;;9.34;77.96;100752.38;5091479;28;20198;-86
2022/04/12 06:53:15;;;;;;;6.28;5.35;;;;;;;9.64;87.17;100760.16;5091700;28;20194;-85
2022/04/12 06:55:42;;;;;;;5.85;4.03;;;;;;;9.68;81.91;100757.72;5090760;28;20894;-84
2022/04/12 06:58:09;;;;;;;4.65;4.25;;;;;;;9.50;82.77;100753.69;5091236;28;20191;-83
2022/04/12 07:00:36;;;;;;;13.77;3.95;;;;;;;9.40;85.39;100742.19;5090371;28;20229;-84
2022/04/12 07:03:03;;;;;;;4.13;3.38;;;;;;;9.59;83.37;100753.97;5090441;28;20202;-85
2022/04/12 07:05:30;;;;;;;9.45;5.20;;;;;;;9.91;86.33;100755.78;5090587;28;20202;-82
2022/04/12 07:07:58;;;;;;;26.27;15.00;;;;;;;9.89;81.47;100744.50;5055264;28;20205;-83
2022/04/12 07:10:25;;;;;;;8.73;5.07;;;;;;;9.78;77.00;100756.25;5090512;28;20202;-83
2022/04/12 07:12:53;;;;;;;4.05;3.50;;;;;;;9.96;75.23;100757.66;5090609;28;20191;-82
2022/04/12 07:15:21;;;;;;;5.85;4.22;;;;;;;10.13;73.30;100757.28;5090365;28;20202;-85
2022/04/12 07:17:47;;;;;;;4.70;3.78;;;;;;;10.30;71.93;100754.34;5090286;28;20202;-81
2022/04/12 07:20:14;;;;;;;6.90;3.28;;;;;;;10.15;71.20;100761.69;5090585;28;20308;-82
2022/04/12 07:22:41;;;;;;;4.00;3.60;;;;;;;10.35;70.73;100757.03;5056708;28;20197;-81
2022/04/12 07:25:11;;;;;;;4.72;3.88;;;;;;;10.61;70.53;100757.72;5090441;28;20616;-81
2022/04/12 07:27:38;;;;;;;4.45;3.65;;;;;;;10.76;67.19;100751.19;5090526;28;20226;-82
2022/04/12 07:30:07;;;;;;;4.25;3.28;;;;;;;10.45;65.67;100757.31;5090208;28;20197;-82
2022/04/12 07:32:34;;;;;;;8.27;4.85;;;;;;;10.55;64.28;100761.03;5090922;28;20201;-82
2022/04/12 07:35:01;;;;;;;5.22;4.55;;;;;;;10.54;65.56;100742.84;5090602;28;20206;-83
2022/04/12 07:37:28;;;;;;;4.07;3.03;;;;;;;10.71;63.46;100757.97;5090540;28;20205;-80
2022/04/12 07:39:56;;;;;;;4.03;2.85;;;;;;;10.65;63.93;100767.31;5090474;28;20232;-83
2022/04/12 07:42:25;;;;;;;6.20;3.55;;;;;;;10.69;63.49;100763.97;5055037;28;20226;-82
2022/04/12 07:44:52;;;;;;;4.25;3.05;;;;;;;10.72;62.25;100770.13;5090763;28;20209;-82
2022/04/12 07:47:19;;;;;;;4.95;3.25;;;;;;;10.73;62.88;100745.06;5090763;28;20202;-82
2022/04/12 07:49:46;;;;;;;6.18;3.30;;;;;;;10.77;64.40;100772.84;5090512;28;20210;-82
2022/04/12 07:52:13;;;;;;;5.45;2.92;;;;;;;10.80;65.56;100759.94;5090430;28;20213;-80
2022/04/12 07:54:40;;;;;;;3.75;3.00;;;;;;;11.07;65.03;100757.13;5090076;28;20534;-83
2022/04/12 07:57:07;;;;;;;4.68;4.20;;;;;;;11.23;63.87;100756.66;5054355;28;20197;-83
2022/04/12 07:59:36;;;;;;;10.52;3.88;;;;;;;11.09;62.97;100766.72;5038224;28;20226;-82
2022/04/12 08:02:03;;;;;;;6.60;3.50;;;;;;;11.27;63.52;100769.72;5090165;28;20222;-82
2022/04/12 08:04:30;;;;;;;2.85;2.75;;;;;;;11.22;60.66;100753.19;5090131;28;20226;-80
2022/04/12 08:06:57;;;;;;;3.90;3.00;;;;;;;11.31;60.27;100755.97;5091826;28;20201;-84
2022/04/12 08:09:24;;;;;;;3.30;2.78;;;;;;;11.52;60.27;100762.50;5093639;28;20205;-82
2022/04/12 08:11:51;;;;;;;3.30;3.05;;;;;;;11.53;56.88;100764.22;5093410;28;20202;-82
2022/04/12 08:14:17;;;;;;;6.15;2.78;;;;;;;11.68;57.45;100768.06;5093808;28;20198;-81
2022/04/12 08:16:46;;;;;;;5.53;2.50;;;;;;;11.67;56.08;100762.81;5093428;28;20240;-81
2022/04/12 08:19:12;;;;;;;5.15;3.25;;;;;;;11.95;56.88;100759.13;5093691;28;20210;-82
2022/04/12 08:21:41;;;;;;;4.88;3.20;;;;;;;12.03;56.45;100768.81;5093389;28;20231;-82
2022/04/12 08:24:09;;;;;;;3.95;2.70;;;;;;;11.83;54.96;100762.34;5093387;28;20194;-81
2022/04/12 08:26:36;;;;;;;2.90;2.70;;;;;;;11.83;56.15;100733.75;5093727;28;20662;-81
2022/04/12 08:29:03;;;;;;;4.53;3.10;;;;;;;12.15;55.10;100737.88;5093310;28;20198;-81
2022/04/12 08:31:30;;;;;;;5.68;2.70;;;;;;;12.45;54.63;100760.94;5093243;28;20533;-82
2022/04/12 08:33:58;;;;;;;2.92;2.63;;;;;;;12.56;54.58;100761.13;5093228;28;20199;-82
2022/04/12 08:36:25;;;;;;;3.92;2.53;;;;;;;12.30;52.94;100753.75;5093579;28;20205;-81
2022/04/12 08:38:52;;;;;;;7.18;2.47;;;;;;;12.09;54.51;100768.94;5093250;28;20292;-80
2022/04/12 08:41:24;;;;;;;3.35;2.53;;;;;;;12.21;55.38;100734.50;5093319;28;20222;-81
2022/04/12 08:43:55;;;;;;;2.47;2.28;;;;;;;11.87;52.74;100678.41;5092878;28;20198;-81
2022/04/12 08:46:24;;;;;;;2.05;1.95;;;;;;;12.14;49.72;100741.31;5093073;28;20202;-81
2022/04/12 08:48:52;;;;;;;4.10;1.90;;;;;;;12.13;47.50;100738.69;5093032;28;20669;-81
2022/04/12 08:51:26;;;;;;;1.70;1.60;;;;;;;12.19;47.16;100742.28;5092807;28;20194;-81
2022/04/12 08:53:53;;;;;;;1.50;1.50;;;;;;;12.24;44.78;100757.94;5092983;28;20205;-83
2022/04/12 08:56:20;;;;;;;1.30;1.30;;;;;;;12.35;45.40;100746.03;5093066;28;20198;-84
2022/04/12 08:58:47;;;;;;;1.80;1.70;;;;;;;12.26;43.97;100751.94;5093112;28;20198;-81
2022/04/12 09:01:15;;;;;;;1.40;1.40;;;;;;;12.52;42.82;100749.81;5093126;28;20225;-83
2022/04/12 09:03:42;;;;;;;1.73;1.63;;;;;;;12.46;44.14;100744.50;5093585;28;20697;-83
2022/04/12 09:06:11;;;;;;;1.80;1.70;;;;;;;12.69;44.93;100735.38;5093277;28;20194;-84
2022/04/12 09:08:39;;;;;;;5.18;1.67;;;;;;;12.23;44.80;100705.09;5093208;28;20218;-85
2022/04/12 09:11:08;;;;;;;2.67;1.85;;;;;;;12.29;45.59;100739.00;5092646;28;20221;-85
2022/04/12 09:13:36;;;;;;;5.93;2.53;;;;;;;12.23;46.62;100728.50;5092702;28;20194;-84
2022/04/12 09:16:08;;;;;;;2.47;2.15;;;;;;;12.25;47.18;100706.00;5092768;28;20268;-85
2022/04/12 09:18:37;;;;;;;2.17;2.05;;;;;;;12.42;48.71;100701.97;5092419;28;20190;-85
2022/04/12 09:21:15;;;;;;;2.50;2.28;;;;;;;12.85;48.25;100718.28;5092464;28;20230;-85
2022/04/12 09:23:45;;;;;;;4.07;2.45;;;;;;;13.14;47.26;100730.06;5092188;28;20201;-84
2022/04/12 09:26:16;;;;;;;6.65;2.45;;;;;;;13.29;46.69;100738.09;5092275;28;20221;-86
2022/04/12 09:28:44;;;;;;;3.67;3.13;;;;;;;12.86;46.92;100731.31;5092051;28;20237;-81
2022/04/12 09:31:12;;;;;;;3.38;2.78;;;;;;;12.67;44.46;100729.25;5092072;28;20205;-84
2022/04/12 09:33:40;;;;;;;6.65;2.60;;;;;;;12.68;44.18;100730.13;5096101;28;20202;-85
2022/04/12 09:36:07;;;;;;;3.13;2.13;;;;;;;12.56;43.63;100703.91;5097769;28;20669;-84
2022/04/12 09:38:34;;;;;;;2.80;2.53;;;;;;;12.83;44.74;100706.97;5092291;28;20198;-84
2022/04/12 09:41:20;;;;;;;2.70;2.40;;;;;;;12.97;44.29;100697.66;5091906;28;20308;-84
2022/04/12 09:44:06;;;;;;;2.70;2.30;;;;;;;12.88;43.68;100681.88;5092296;28;20300;-84
2022/04/12 09:46:33;;;;;;;2.85;2.65;;;;;;;13.07;45.70;100689.13;5091797;28;20198;-81
2022/04/12 09:48:59;;;;;;;4.38;2.90;;;;;;;13.06;44.34;100697.78;5056334;28;20194;-83
2022/04/12 09:51:26;;;;;;;3.08;2.38;;;;;;;13.17;45.37;100696.25;5091714;28;20666;-82
2022/04/12 09:53:53;;;;;;;4.10;2.80;;;;;;;13.21;43.86;100700.66;5091747;28;20242;-84
2022/04/12 09:56:23;;;;;;;5.18;3.67;;;;;;;13.26;45.27;100685.09;5091728;28;20259;-84
2022/04/12 09:58:51;;;;;;;4.38;3.72;;;;;;;13.36;44.25;100700.88;5091882;28;20194;-85
2022/04/12 10:01:19;;;;;;;3.60;3.00;;;;;;;13.16;44.39;100678.00;5091799;28;20229;-84
2022/04/12 10:03:50;;;;;;;5.68;3.90;;;;;;;13.30;44.55;100666.94;5092266;28;20198;-85
2022/04/12 10:06:20;;;;;;;1.60;1.60;;;;;;;13.36;43.67;100674.81;5091743;28;20201;-84
2022/04/12 10:08:51;;;;;;;3.38;3.08;;;;;;;13.12;44.06;100619.81;5091874;28;20240;-85
2022/04/12 10:11:19;;;;;;;5.60;3.80;;;;;;;13.69;44.46;100683.91;5092038;28;20198;-86
2022/04/12 10:13:47;;;;;;;3.65;3.13;;;;;;;13.59;43.00;100674.25;5091219;28;20612;-82
2022/04/12 10:16:16;;;;;;;2.30;2.20;;;;;;;13.37;41.41;100679.19;5091199;28;20234;-83
2022/04/12 10:18:43;;;;;;;2.45;1.85;;;;;;;13.40;40.08;100689.63;5091040;28;20209;-79
2022/04/12 10:21:12;;;;;;;3.05;2.05;;;;;;;13.18;38.98;100666.75;5091137;28;20226;-84
2022/04/12 10:23:40;;;;;;;1.60;1.50;;;;;;;13.56;39.11;100669.84;5091390;28;20194;-85
2022/04/12 10:26:10;;;;;;;2.55;1.73;;;;;;;13.76;38.16;100677.91;5091110;28;20198;-85
2022/04/12 10:28:37;;;;;;;2.50;2.30;;;;;;;13.82;39.99;100694.50;5091109;28;20198;-84
2022/04/12 10:31:20;;;;;;;2.55;1.95;;;;;;;13.60;38.52;100697.69;5090142;28;20213;-84
2022/04/12 10:34:09;;;;;;;1.88;1.77;;;;;;;13.60;39.44;100689.00;5055868;28;20190;-88
2022/04/12 10:36:56;;;;;;;1.60;1.60;;;;;;;13.89;40.53;100675.47;5090954;28;20194;-84
2022/04/12 10:39:29;;;;;;;1.70;1.60;;;;;;;13.83;40.04;100651.06;5091089;28;20212;-83
2022/04/12 10:41:56;;;;;;;1.40;1.40;;;;;;;13.71;39.90;100661.34;5091057;28;20229;-84
2022/04/12 10:44:25;;;;;;;3.58;1.90;;;;;;;14.23;40.47;100674.06;5091183;28;20705;-83
2022/04/12 10:46:53;;;;;;;2.20;2.10;;;;;;;13.63;39.53;100683.81;5090900;28;20198;-84
2022/04/12 10:49:21;;;;;;;1.98;1.88;;;;;;;13.84;40.13;100645.00;5090723;28;20202;-83
2022/04/12 10:51:57;;;;;;;2.72;1.90;;;;;;;14.22;40.53;100651.47;5090984;28;20587;-83
2022/04/12 10:54:31;;;;;;;4.00;1.80;;;;;;;13.79;40.74;100665.78;5091618;28;20236;-84
2022/04/12 10:57:24;;;;;;;2.25;1.77;;;;;;;13.71;39.71;100676.97;5091942;28;20194;-83
2022/04/12 10:59:53;;;;;;;1.95;1.85;;;;;;;14.07;40.89;100671.28;5090750;28;20198;-84
2022/04/12 11:02:22;;;;;;;2.00;1.77;;;;;;;13.66;41.27;100582.25;5055018;28;20217;-82
2022/04/12 11:04:49;;;;;;;3.78;2.55;;;;;;;14.32;41.43;100661.13;5090804;28;20221;-83
2022/04/12 11:07:33;;;;;;;2.28;2.00;;;;;;;14.21;41.46;100667.09;5090647;28;20201;-82
2022/04/12 11:34:58;;;;;;;3.28;2.95;;;;;;;15.35;41.59;100640.09;5086964;28;20261;-85
2022/04/12 11:37:24;;;;;;;3.08;2.28;;;;;;;15.28;41.87;100646.16;5090603;28;20613;-84
2022/04/12 11:39:51;;;;;;;2.70;2.50;;;;;;;15.30;41.39;100636.59;5092609;28;20208;-85
2022/04/12 11:42:18;;;;;;;2.40;2.22;;;;;;;15.28;42.15;100633.09;5093240;28;20233;-79
2022/04/12 11:44:52;;;;;;;4.85;2.70;;;;;;;14.71;41.41;100578.81;5096283;28;20198;-88
2022/04/12 11:47:19;;;;;;;2.60;2.40;;;;;;;14.90;41.14;100632.91;5096368;28;20684;-88
2022/04/12 11:49:46;;;;;;;2.78;2.58;;;;;;;14.64;41.73;100637.06;5096129;28;20670;-87
2022/04/12 11:52:16;;;;;;;6.25;2.92;;;;;;;14.66;42.55;100601.41;5095814;28;20214;-86
2022/04/12 11:54:45;;;;;;;4.93;2.35;;;;;;;14.84;42.76;100620.66;5094125;28;20201;-80
2022/04/12 11:57:13;;;;;;;2.92;2.42;;;;;;;15.00;43.02;100623.38;5094290;28;20198;-82